Jackson, KY

1:37 PM EST on March 01, 2017 (GMT -0500)
Carroll | | Change Station

Elev 1381 ft 37.59 °N, 83.32 °W | Updated 44 minutes ago

Mostly Cloudy
Mostly Cloudy
56 °F
Feels Like 56 °F
N
10
Wind Variable Wind from SSW
Gusts 20 mph

Today
High -- | Low -- °F
--% Chance of Precip.
Yesterday
High -- | Low -- °F
Precip. -- in
Pressure 29.73 in
Visibility 10.0 miles
Clouds Few 2100 ft
Overcast 6000 ft
Dew Point 52 °F
Humidity 87%
Rainfall 0.73 in
Snow Depth Not available.
7:04 AM 6:27 PM
Waxing Crescent, 12% visible
METAR KJKL 011753Z AUTO 20009G17KT 10SM FEW021 OVC060 13/11 A2975 RMK AO2 SLP066 60069 T01330111 10200 20106 58047
Pressure 29.73 in
Visibility 10.0 miles
Clouds Few 2100 ft
Overcast 6000 ft
Dew Point 52 °F
Humidity 87%
Rainfall 0.73 in
Snow Depth Not available.
7:04 AM 6:27 PM
Waxing Crescent, 12% visible
METAR KJKL 011753Z AUTO 20009G17KT 10SM FEW021 OVC060 13/11 A2975 RMK AO2 SLP066 60069 T01330111 10200 20106 58047

Get Your Daily Forecast Email!

Thanks for signing up!

Be on the lookout for a verification email in your inbox.

You'll start receiving the daily forecast at 8 AM.

×

10-Day Weather Forecast

Almanac

Astronomy

Mar. 01, 2017 Rise Set
Actual Time
Civil Twilight
Nautical Twilight
Astronomical Twilight
Moon
Length of Visible Light
Length of Day
Tomorrow will be .
, % of the Moon is Illuminated

Today's Extremes

State Highs State Lows

Community

WunderPhotos

Upload Photos

1,962,540 photos uploaded!

WunderBlog® & News

Nearby

Air Quality

  Air Quality AQ Index Pollutant
Not available.

Snow Depth

Station Depth Elevation

Earthquake Activity

City Distance Mag. Time & Date
Minimum magnitude displayed is 2.5.

Coastal Water Temperatures

Place Temperature

Stations

Nearby Weather Stations

Station Location Temp. Windchill Dew Point Humidity Wind Precip. Elev Updated Type
                   

Watches & Warnings

There are currently no watches in effect.